AIRPORT ID: KANP

DATE: 2021-12-09 ZULU TIME: 0.55 LOCAL TIME: 19.55


METAR KANP 090055Z AUTO 00000KT 10SM 00/M04 A2995

ALTIMETER: A2995 Q1014

DENSITY ALT: -1600 Ft

WIND DIRECT: 180

WIND SPEED: 0 Gust

WIND CONDITIONS:

VISIBILTY: 10SM 9999M

TEMPERATURE: 32 F 0 C

DEW POINT: 25 F -4 C

HUMID: 76%

LCL: 1,000-3,000 feet

RADIO CHECK: 0

ADVISARIES: 3

GREETINGS: 0

CONVERSATIONS: 6